Time;durP1;ratioP1;P1;durP2;ratioP2;P2;SDS_P1;SDS_P2;PMS_P1;PMS_P2;Temp;Humidity;BMP_temperature;BMP_pressure;BME280_temperature;BME280_humidity;BME280_pressure;Samples;Min_cycle;Max_cycle;Signal;HPM_P1;HPM_P2
2022/12/27 00:02:20;;;;;;;3.57;0.60;;;;;;;8.56;58.06;101547.13;5085555;28;20293;-61
2022/12/27 00:04:49;;;;;;;1.77;0.40;;;;;;;8.57;57.63;101546.19;5096922;28;20221;-62
2022/12/27 00:07:17;;;;;;;3.57;1.20;;;;;;;8.57;57.41;101546.19;5085986;28;20218;-62
2022/12/27 00:09:46;;;;;;;2.53;0.50;;;;;;;8.58;57.17;101550.53;5095973;28;20341;-62
2022/12/27 00:12:14;;;;;;;3.93;0.80;;;;;;;8.58;57.36;101557.59;5085773;28;20237;-62
2022/12/27 00:14:41;;;;;;;3.40;0.90;;;;;;;8.60;57.11;101550.41;5092923;28;20620;-62
2022/12/27 00:17:09;;;;;;;5.40;0.80;;;;;;;8.63;56.75;101558.97;5085989;28;20757;-62
2022/12/27 00:19:37;;;;;;;3.10;0.70;;;;;;;8.59;56.90;101546.94;5091989;28;20252;-62
2022/12/27 00:22:05;;;;;;;1.73;0.43;;;;;;;8.60;56.64;101563.63;5090122;28;20296;-63
2022/12/27 00:24:34;;;;;;;3.53;0.47;;;;;;;8.56;56.67;101559.50;5089372;28;20210;-62
2022/12/27 00:27:03;;;;;;;2.53;0.40;;;;;;;8.55;56.37;101560.47;5091216;28;20237;-62
2022/12/27 00:29:31;;;;;;;2.07;0.40;;;;;;;8.58;56.46;101568.19;5085312;28;20203;-62
2022/12/27 00:31:58;;;;;;;1.50;0.50;;;;;;;8.58;56.06;101565.53;5104468;27;20221;-61
2022/12/27 00:34:26;;;;;;;1.87;0.43;;;;;;;8.55;56.18;101558.66;5104309;28;20210;-62
2022/12/27 00:36:54;;;;;;;3.43;0.60;;;;;;;8.53;56.27;101565.84;5106727;28;20780;-62
2022/12/27 00:39:22;;;;;;;2.97;0.50;;;;;;;8.57;55.77;101566.50;5108410;28;20642;-62
2022/12/27 00:41:49;;;;;;;0.97;0.30;;;;;;;8.62;56.02;101572.28;5099613;28;20213;-62
2022/12/27 00:44:19;;;;;;;2.43;0.50;;;;;;;8.64;56.02;101573.88;5108833;28;20658;-62
2022/12/27 00:46:46;;;;;;;4.07;0.60;;;;;;;8.60;56.25;101572.41;5098791;28;20218;-62
2022/12/27 00:49:14;;;;;;;2.43;0.60;;;;;;;8.59;56.44;101570.72;5104572;28;20775;-63
2022/12/27 00:51:42;;;;;;;5.77;0.63;;;;;;;8.59;56.54;101580.44;5104446;28;20705;-63
2022/12/27 00:54:10;;;;;;;3.33;0.70;;;;;;;8.61;56.65;101579.41;5107351;28;20311;-62
2022/12/27 00:56:37;;;;;;;3.37;0.60;;;;;;;8.63;56.67;101576.63;5105339;28;20282;-62
2022/12/27 00:59:05;;;;;;;1.93;0.50;;;;;;;8.61;56.96;101582.03;5107319;28;20228;-61
2022/12/27 01:01:36;;;;;;;1.10;0.40;;;;;;;8.60;57.05;101576.84;5104223;28;20564;-62
2022/12/27 01:04:04;;;;;;;4.57;0.73;;;;;;;8.57;57.60;101574.41;5107955;28;20556;-62
2022/12/27 01:06:33;;;;;;;3.17;0.60;;;;;;;8.57;57.96;101567.34;5105247;28;20204;-61
2022/12/27 01:09:02;;;;;;;3.87;0.63;;;;;;;8.60;58.27;101582.16;5104435;28;20223;-61
2022/12/27 01:11:30;;;;;;;1.43;0.60;;;;;;;8.59;58.27;101596.31;5101655;28;20728;-62
2022/12/27 01:14:00;;;;;;;2.10;0.63;;;;;;;8.60;58.38;101598.00;5107995;28;20270;-62
2022/12/27 01:16:30;;;;;;;4.80;0.77;;;;;;;8.59;58.31;101599.81;5100667;28;20217;-62
2022/12/27 01:19:00;;;;;;;5.87;0.80;;;;;;;8.57;58.58;101604.34;5102835;28;20297;-62
2022/12/27 01:21:29;;;;;;;5.87;0.57;;;;;;;8.55;58.90;101602.75;5105203;28;20594;-62
2022/12/27 01:23:58;;;;;;;6.00;0.80;;;;;;;8.52;59.10;101610.91;5107380;28;20598;-62
2022/12/27 01:26:26;;;;;;;3.93;0.87;;;;;;;8.52;59.35;101603.84;5100857;28;20224;-62
2022/12/27 01:28:54;;;;;;;4.00;0.80;;;;;;;8.53;59.33;101602.84;5100176;28;20252;-62
2022/12/27 01:31:26;;;;;;;3.47;0.80;;;;;;;8.53;59.34;101605.50;5093614;28;20577;-62
2022/12/27 01:33:55;;;;;;;1.87;0.70;;;;;;;8.54;59.73;101606.34;5086873;28;20297;-62
2022/12/27 01:36:26;;;;;;;3.97;1.00;;;;;;;8.55;59.49;101608.88;5088957;28;20217;-62
2022/12/27 01:38:54;;;;;;;4.10;0.80;;;;;;;8.48;59.67;101606.78;5096746;28;20201;-62
2022/12/27 01:44:48;;;;;;;2.50;0.60;;;;;;;8.42;60.11;101621.28;5085421;28;20293;-62
2022/12/27 01:47:32;;;;;;;3.13;0.77;;;;;;;8.36;60.37;101618.19;5091693;28;20214;-62
2022/12/27 01:50:09;;;;;;;2.27;0.70;;;;;;;8.30;60.74;101630.88;5088661;28;20210;-63
2022/12/27 01:52:41;;;;;;;7.73;0.97;;;;;;;8.30;60.89;101643.22;5088515;28;20232;-62
2022/12/27 01:55:17;;;;;;;3.07;0.97;;;;;;;8.29;60.99;101639.75;5086361;28;20568;-62
2022/12/27 01:57:46;;;;;;;4.03;0.70;;;;;;;8.26;61.54;101634.69;5083336;28;20603;-62
2022/12/27 02:00:14;;;;;;;4.67;0.90;;;;;;;8.20;61.86;101631.59;5091206;28;20574;-62
2022/12/27 02:02:42;;;;;;;5.13;0.67;;;;;;;8.20;62.17;101632.44;5092900;28;20239;-63
2022/12/27 02:05:14;;;;;;;4.40;1.30;;;;;;;8.16;62.16;101638.91;5085192;28;20683;-63
2022/12/27 02:07:55;;;;;;;5.97;0.90;;;;;;;8.16;62.43;101641.53;5088283;28;20202;-62
2022/12/27 02:10:24;;;;;;;4.10;0.87;;;;;;;8.17;62.32;101637.09;5083945;28;20214;-63
2022/12/27 02:12:52;;;;;;;4.77;0.77;;;;;;;8.16;62.58;101649.47;5088082;28;20241;-63
2022/12/27 02:15:19;;;;;;;3.50;0.90;;;;;;;8.13;62.50;101640.91;5095261;28;20204;-60
2022/12/27 02:17:47;;;;;;;8.63;1.40;;;;;;;8.07;62.91;101638.69;5088681;28;20208;-62
2022/12/27 02:20:18;;;;;;;3.43;1.00;;;;;;;8.07;63.39;101642.16;5087117;28;20231;-62
2022/12/27 02:26:33;;;;;;;4.67;1.00;;;;;;;8.12;63.31;101636.56;5085452;28;20233;-62
2022/12/27 02:29:18;;;;;;;4.60;0.83;;;;;;;8.11;63.65;101646.28;5090740;28;20208;-62
2022/12/27 02:31:53;;;;;;;8.73;1.33;;;;;;;8.15;63.39;101645.13;5086110;28;20612;-62
2022/12/27 02:34:26;;;;;;;3.80;1.03;;;;;;;8.10;63.80;101641.94;5083827;28;20216;-62
2022/12/27 02:36:59;;;;;;;4.83;1.33;;;;;;;8.09;64.08;101650.00;5082097;28;20240;-62
2022/12/27 02:39:30;;;;;;;7.27;1.03;;;;;;;8.07;64.31;101652.72;5082801;28;20246;-62
2022/12/27 02:53:14;;;;;;;4.17;0.90;;;;;;;7.91;65.31;101645.00;5078511;28;20226;-62
2022/12/27 02:59:06;;;;;;;7.53;1.70;;;;;;;7.94;65.37;101642.13;5089472;28;20212;-62
2022/12/27 03:04:46;;;;;;;5.07;1.10;;;;;;;7.91;65.76;101649.44;5084745;28;20213;-62
2022/12/27 03:07:27;;;;;;;8.17;1.70;;;;;;;7.89;65.95;101644.25;5084905;28;20215;-62
2022/12/27 03:16:00;;;;;;;8.73;1.47;;;;;;;7.80;66.51;101644.88;5088844;28;20201;-62
2022/12/27 03:18:42;;;;;;;5.07;1.53;;;;;;;7.79;66.58;101653.72;5082828;28;20282;-61
2022/12/27 03:26:47;;;;;;;5.97;1.57;;;;;;;7.79;66.62;101655.53;5084255;28;20469;-62
2022/12/27 03:35:05;;;;;;;5.60;1.37;;;;;;;7.71;67.30;101663.09;5086171;28;20524;-63
2022/12/27 03:40:33;;;;;;;8.70;1.60;;;;;;;7.77;67.48;101649.47;5084377;28;20520;-62
2022/12/27 03:43:11;;;;;;;5.57;1.23;;;;;;;7.74;67.68;101644.44;5086160;28;20251;-62
2022/12/27 03:49:02;;;;;;;12.03;2.10;;;;;;;7.66;67.88;101649.34;5081009;28;20235;-63
2022/12/27 03:51:37;;;;;;;7.03;1.10;;;;;;;7.59;68.25;101650.69;5081444;28;20207;-63
2022/12/27 03:54:09;;;;;;;7.93;1.60;;;;;;;7.59;68.22;101651.53;5085930;28;20228;-63
2022/12/27 03:56:38;;;;;;;4.13;1.07;;;;;;;7.54;68.39;101648.38;5084055;28;20206;-63
2022/12/27 03:59:07;;;;;;;9.60;1.77;;;;;;;7.52;68.32;101650.25;5083380;28;20544;-63
2022/12/27 04:01:34;;;;;;;4.00;1.20;;;;;;;7.41;68.65;101648.31;5084953;28;20654;-63
2022/12/27 04:04:02;;;;;;;12.80;2.20;;;;;;;7.43;69.02;101661.41;5081869;28;20208;-63
2022/12/27 04:06:31;;;;;;;4.77;1.40;;;;;;;7.45;68.72;101654.25;5083355;28;20655;-61
2022/12/27 04:36:34;;;;;;;7.33;1.20;;;;;;;7.03;70.21;101658.69;5082036;28;20631;-62
2022/12/27 04:39:03;;;;;;;5.57;1.27;;;;;;;7.09;69.95;101658.28;5083223;28;20203;-63
2022/12/27 04:55:32;;;;;;;5.67;1.30;;;;;;;6.78;71.13;101666.41;5082118;28;20207;-63
2022/12/27 04:57:59;;;;;;;4.70;1.53;;;;;;;6.71;70.93;101663.31;5082325;28;20222;-61
2022/12/27 05:03:19;;;;;;;5.27;1.63;;;;;;;6.71;71.46;101670.38;5083912;28;20203;-62
2022/12/27 05:05:49;;;;;;;5.67;1.70;;;;;;;6.76;71.51;101666.53;5082801;28;20656;-63
2022/12/27 05:14:09;;;;;;;7.70;1.40;;;;;;;6.74;71.70;101672.81;5004529;28;20714;-62
2022/12/27 05:16:39;;;;;;;8.40;1.30;;;;;;;6.86;71.35;101687.88;5002323;28;20210;-62
2022/12/27 05:19:09;;;;;;;10.37;1.53;;;;;;;6.90;71.24;101689.38;5045387;28;20239;-62
2022/12/27 05:21:37;;;;;;;3.97;1.40;;;;;;;6.88;71.19;101690.41;5088730;28;20652;-62
2022/12/27 05:26:55;;;;;;;6.30;1.63;;;;;;;6.93;71.04;101686.56;5081320;28;20257;-62
2022/12/27 05:29:23;;;;;;;10.40;2.10;;;;;;;6.95;70.96;101697.84;5083121;28;20654;-63
2022/12/27 05:31:51;;;;;;;6.47;1.20;;;;;;;6.91;71.15;101691.09;5083244;28;20231;-62
2022/12/27 05:34:19;;;;;;;4.40;1.60;;;;;;;6.96;70.96;101698.69;5085984;28;20325;-62
2022/12/27 05:36:46;;;;;;;6.80;1.77;;;;;;;6.98;70.88;101702.09;5083382;28;20211;-62
2022/12/27 05:39:14;;;;;;;11.17;1.77;;;;;;;7.05;70.67;101709.53;5082683;28;20290;-62
2022/12/27 05:41:42;;;;;;;6.13;1.97;;;;;;;7.08;70.28;101697.94;5081156;28;20246;-62
2022/12/27 05:44:11;;;;;;;4.60;1.60;;;;;;;7.01;70.04;101696.63;5082814;28;20206;-62
2022/12/27 05:46:39;;;;;;;3.80;1.03;;;;;;;6.95;70.51;101700.50;5083647;28;20609;-62
2022/12/27 05:49:06;;;;;;;6.73;1.47;;;;;;;6.83;71.60;101698.63;5082049;28;20212;-61
2022/12/27 05:51:34;;;;;;;4.17;1.47;;;;;;;6.90;71.32;101697.28;5081837;28;20212;-62
2022/12/27 05:54:02;;;;;;;5.73;1.50;;;;;;;6.92;71.23;101708.59;5082004;28;20237;-62
2022/12/27 05:56:30;;;;;;;5.43;2.40;;;;;;;6.91;71.09;101704.28;5084291;28;20207;-61
2022/12/27 05:58:57;;;;;;;7.07;1.87;;;;;;;6.89;71.38;101713.22;5080955;28;20232;-60
2022/12/27 06:01:26;;;;;;;10.37;1.70;;;;;;;6.91;71.60;101714.81;5086427;28;20213;-60
2022/12/27 06:03:54;;;;;;;6.57;1.63;;;;;;;6.88;71.35;101716.78;5082997;28;20207;-62
2022/12/27 06:06:22;;;;;;;9.73;1.70;;;;;;;6.91;71.62;101722.72;5081710;28;20212;-62
2022/12/27 06:08:50;;;;;;;10.03;1.87;;;;;;;6.96;71.29;101728.56;5082085;28;20298;-62
2022/12/27 06:11:19;;;;;;;5.70;1.50;;;;;;;6.98;71.19;101728.47;5079787;28;20211;-61
2022/12/27 06:13:50;;;;;;;3.40;1.13;;;;;;;7.02;70.98;101728.19;5079983;28;20226;-62
2022/12/27 06:16:19;;;;;;;3.13;1.27;;;;;;;7.04;70.80;101728.94;5082799;28;20219;-62
2022/12/27 06:18:49;;;;;;;4.43;1.40;;;;;;;7.07;70.47;101733.19;5082755;28;20210;-61
2022/12/27 06:21:19;;;;;;;7.23;1.53;;;;;;;7.02;70.57;101736.13;5083665;28;20221;-62
2022/12/27 06:23:48;;;;;;;6.10;1.33;;;;;;;7.02;70.52;101733.47;5085966;28;20203;-62
2022/12/27 06:26:18;;;;;;;4.30;1.30;;;;;;;7.05;70.29;101741.19;5082728;28;20239;-62
2022/12/27 06:28:46;;;;;;;5.40;1.47;;;;;;;7.04;70.28;101743.91;5084953;28;20208;-61
2022/12/27 06:31:13;;;;;;;7.03;2.27;;;;;;;7.08;70.22;101741.00;5097736;28;20234;-60
2022/12/27 06:33:41;;;;;;;5.77;1.27;;;;;;;7.11;69.96;101745.25;5110652;27;20233;-62
2022/12/27 06:36:12;;;;;;;6.13;1.50;;;;;;;7.13;69.81;101743.34;5114904;27;20202;-61
2022/12/27 06:38:40;;;;;;;5.40;1.37;;;;;;;7.13;69.61;101733.63;5107907;28;20210;-62
2022/12/27 06:41:10;;;;;;;5.00;1.30;;;;;;;7.13;69.74;101738.91;5112779;28;20207;-62
2022/12/27 06:43:39;;;;;;;4.13;1.13;;;;;;;7.12;69.51;101736.41;5108284;28;20204;-62
2022/12/27 06:46:10;;;;;;;5.73;1.43;;;;;;;7.11;69.72;101730.28;5116858;27;20241;-62
2022/12/27 06:48:44;;;;;;;7.70;1.40;;;;;;;7.13;69.46;101733.63;5111234;27;20716;-62
2022/12/27 06:51:14;;;;;;;9.60;1.30;;;;;;;7.15;69.45;101725.63;5108157;28;20202;-62
2022/12/27 06:53:42;;;;;;;8.10;1.57;;;;;;;7.16;69.35;101728.19;5106336;28;20236;-62
2022/12/27 06:56:12;;;;;;;4.90;1.23;;;;;;;7.23;68.98;101733.06;5109734;28;20264;-60
2022/12/27 06:58:40;;;;;;;5.23;1.43;;;;;;;7.10;69.30;101741.75;5104960;28;20215;-62
2022/12/27 07:01:08;;;;;;;7.10;1.60;;;;;;;7.03;70.04;101740.44;5108285;28;20211;-62
2022/12/27 07:03:36;;;;;;;7.57;1.20;;;;;;;7.02;70.08;101741.38;5105940;28;20840;-61
2022/12/27 07:06:05;;;;;;;7.83;1.77;;;;;;;7.06;70.33;101749.94;5107232;28;20206;-61
2022/12/27 07:08:35;;;;;;;6.40;1.80;;;;;;;7.07;70.14;101747.22;5104762;28;20212;-62
2022/12/27 07:11:05;;;;;;;8.13;1.80;;;;;;;7.09;70.08;101747.13;5110496;27;20206;-62
2022/12/27 07:13:34;;;;;;;10.27;2.30;;;;;;;7.08;69.71;101748.91;5108577;28;20309;-60
2022/12/27 07:16:03;;;;;;;6.17;1.80;;;;;;;6.98;70.05;101755.69;5107513;28;20263;-63
2022/12/27 07:18:33;;;;;;;9.03;2.03;;;;;;;6.93;70.72;101755.13;5105135;28;20231;-63
2022/12/27 07:21:04;;;;;;;5.70;1.90;;;;;;;6.97;70.60;101761.06;5109753;28;20690;-63
2022/12/27 07:23:31;;;;;;;7.47;1.73;;;;;;;6.98;70.56;101760.97;5109918;28;20293;-63
2022/12/27 07:26:03;;;;;;;7.20;2.13;;;;;;;7.05;70.26;101772.84;5107803;28;20226;-62
2022/12/27 07:28:32;;;;;;;6.13;2.07;;;;;;;7.02;70.47;101769.56;5109067;27;20207;-62
2022/12/27 07:31:00;;;;;;;5.73;2.30;;;;;;;7.06;70.38;101771.88;5093619;28;20247;-62
2022/12/27 07:33:28;;;;;;;8.40;2.40;;;;;;;7.08;70.35;101771.81;5086400;28;20211;-60
2022/12/27 07:36:00;;;;;;;7.67;2.10;;;;;;;7.13;70.19;101770.56;5084779;28;20609;-62
2022/12/27 07:38:28;;;;;;;8.50;2.33;;;;;;;7.17;70.08;101780.00;5084190;28;20295;-63
2022/12/27 07:40:59;;;;;;;5.63;2.90;;;;;;;7.23;69.77;101783.19;5084674;28;20207;-63
2022/12/27 07:43:31;;;;;;;8.33;2.60;;;;;;;7.15;69.44;101784.50;5089821;28;20616;-61
2022/12/27 07:46:03;;;;;;;6.07;2.43;;;;;;;7.06;69.88;101790.34;5084414;28;20200;-62
2022/12/27 07:48:32;;;;;;;10.10;2.73;;;;;;;6.97;69.40;101795.34;5090120;28;20621;-62
2022/12/27 07:51:00;;;;;;;5.93;2.37;;;;;;;6.82;70.03;101805.03;5083259;28;20284;-63
2022/12/27 07:53:27;;;;;;;7.00;3.07;;;;;;;6.80;70.66;101812.19;5084203;28;20239;-65
2022/12/27 07:55:55;;;;;;;8.20;2.60;;;;;;;7.02;70.12;101809.13;5086264;28;20730;-61
2022/12/27 07:58:24;;;;;;;5.20;2.50;;;;;;;7.09;69.86;101823.63;5084068;28;20274;-62
2022/12/27 08:00:55;;;;;;;6.93;2.40;;;;;;;7.14;69.53;101819.75;5083528;28;20287;-62
2022/12/27 08:03:24;;;;;;;5.97;2.77;;;;;;;7.19;69.62;101830.03;5084353;28;20977;-62
2022/12/27 08:05:52;;;;;;;9.37;2.93;;;;;;;7.33;69.52;101837.09;5080642;28;20208;-62
2022/12/27 08:08:25;;;;;;;9.13;3.53;;;;;;;7.39;69.24;101831.44;5083987;28;20212;-62
2022/12/27 08:10:52;;;;;;;16.07;3.63;;;;;;;7.27;69.44;101830.41;5084605;28;20203;-63
2022/12/27 08:13:20;;;;;;;9.80;3.00;;;;;;;7.20;69.21;101828.25;5082743;28;20220;-62
2022/12/27 08:15:48;;;;;;;5.87;2.53;;;;;;;6.96;70.14;101820.88;5083973;28;20238;-63
2022/12/27 08:18:20;;;;;;;8.90;3.30;;;;;;;6.96;70.51;101820.88;5087492;28;20652;-62
2022/12/27 08:20:47;;;;;;;13.60;3.13;;;;;;;6.97;70.55;101832.25;5081299;28;20298;-62
2022/12/27 08:23:15;;;;;;;10.17;3.20;;;;;;;6.88;70.82;101833.66;5084018;28;20218;-62
2022/12/27 08:25:44;;;;;;;7.50;3.47;;;;;;;6.79;71.08;101829.78;5086835;28;20211;-62
2022/12/27 08:28:17;;;;;;;8.97;3.70;;;;;;;6.91;71.25;101833.50;5087826;28;20231;-62
2022/12/27 08:30:46;;;;;;;10.33;3.40;;;;;;;6.95;71.22;101831.53;5082224;28;20319;-62
2022/12/27 08:33:15;;;;;;;6.17;2.30;;;;;;;6.98;70.97;101834.81;5090683;28;20203;-62
2022/12/27 08:35:45;;;;;;;9.57;3.20;;;;;;;6.95;71.72;101819.16;5083766;28;20922;-62
2022/12/27 08:38:21;;;;;;;10.10;3.73;;;;;;;7.11;71.01;101827.88;5087195;28;20729;-61
2022/12/27 08:40:49;;;;;;;10.53;3.77;;;;;;;7.11;70.94;101830.50;5089833;28;20206;-62
2022/12/27 08:43:17;;;;;;;8.30;3.20;;;;;;;7.14;71.29;101838.22;5083956;28;20298;-61
2022/12/27 08:45:45;;;;;;;9.33;3.07;;;;;;;7.29;70.71;101839.09;5084483;28;20208;-62
2022/12/27 08:48:12;;;;;;;10.73;3.57;;;;;;;7.25;70.79;101844.63;5085386;28;20215;-62
2022/12/27 08:50:40;;;;;;;10.37;3.90;;;;;;;7.26;70.78;101849.81;5082391;28;20247;-62
2022/12/27 08:53:10;;;;;;;8.27;3.03;;;;;;;7.34;70.79;101852.00;5084032;28;20213;-62
2022/12/27 08:55:38;;;;;;;12.90;3.97;;;;;;;7.44;70.50;101858.41;5080429;28;20235;-62
2022/12/27 08:58:06;;;;;;;9.67;3.37;;;;;;;7.48;70.25;101859.91;5081372;28;20257;-61
2022/12/27 09:00:42;;;;;;;8.40;3.50;;;;;;;7.47;70.70;101863.50;5082817;28;20218;-61
2022/12/27 09:03:10;;;;;;;12.67;4.30;;;;;;;7.49;70.73;101866.88;5081856;28;20212;-62
2022/12/27 09:05:38;;;;;;;11.30;3.73;;;;;;;7.52;70.26;101858.78;5089632;28;20220;-62
2022/12/27 09:08:10;;;;;;;8.80;3.50;;;;;;;7.63;70.31;101858.13;5082609;28;20625;-62
2022/12/27 09:10:38;;;;;;;9.90;3.57;;;;;;;7.71;69.91;101861.13;5080953;28;20663;-62
2022/12/27 09:13:05;;;;;;;14.07;3.43;;;;;;;7.78;69.26;101865.09;5087705;28;20694;-61
2022/12/27 09:15:33;;;;;;;7.73;2.70;;;;;;;7.69;69.44;101874.44;5087353;28;20224;-61
2022/12/27 09:18:01;;;;;;;10.17;3.93;;;;;;;7.73;69.76;101875.94;5083193;28;20242;-61
2022/12/27 09:20:29;;;;;;;8.57;3.40;;;;;;;7.84;69.73;101878.75;5080222;28;20216;-62
2022/12/27 09:22:58;;;;;;;8.30;3.30;;;;;;;7.96;69.30;101882.41;5081432;28;20208;-63
2022/12/27 09:25:28;;;;;;;12.20;3.77;;;;;;;7.99;68.41;101876.09;5082116;28;20654;-63
2022/12/27 09:27:55;;;;;;;7.00;3.23;;;;;;;8.03;68.49;101877.59;5083882;28;20212;-61
2022/12/27 09:30:23;;;;;;;7.33;3.03;;;;;;;8.12;67.95;101877.00;5091436;28;20245;-62
2022/12/27 09:32:51;;;;;;;10.20;3.17;;;;;;;8.10;68.42;101882.38;5102731;28;20214;-63
2022/12/27 09:35:19;;;;;;;9.27;3.30;;;;;;;8.11;68.24;101880.56;5106478;27;20684;-63
2022/12/27 09:37:46;;;;;;;8.67;2.80;;;;;;;8.11;68.47;101888.50;5104275;28;20740;-63
2022/12/27 09:40:16;;;;;;;9.93;3.33;;;;;;;8.23;68.45;101893.88;5104873;28;20212;-62
2022/12/27 09:42:47;;;;;;;7.57;3.33;;;;;;;8.41;68.10;101894.50;5103802;28;20404;-63
2022/12/27 09:45:39;;;;;;;10.60;2.97;;;;;;;8.67;66.91;101896.28;5105654;28;20216;-63
2022/12/27 09:48:12;;;;;;;6.23;3.20;;;;;;;8.92;66.13;101898.16;5102891;28;20217;-63
2022/12/27 09:50:49;;;;;;;8.30;3.20;;;;;;;9.10;64.94;101890.78;5103025;28;20296;-62
2022/12/27 09:53:22;;;;;;;16.77;3.87;;;;;;;9.18;65.12;101891.09;5099730;28;20201;-63
2022/12/27 09:55:52;;;;;;;7.20;3.13;;;;;;;9.39;64.63;101884.34;5102601;28;20222;-62
2022/12/27 09:58:36;;;;;;;10.80;2.83;;;;;;;9.49;63.84;101878.41;5103022;28;20204;-63
2022/12/27 10:01:18;;;;;;;15.40;3.50;;;;;;;9.53;63.67;101882.50;5103823;28;20686;-62
2022/12/27 10:03:47;;;;;;;12.57;3.40;;;;;;;9.68;63.26;101870.84;5100829;28;20807;-66
2022/12/27 10:06:35;;;;;;;13.87;3.40;;;;;;;9.89;62.08;101865.81;5103497;28;20237;-63
2022/12/27 10:09:17;;;;;;;13.03;3.80;;;;;;;9.97;61.76;101874.91;5102711;28;20210;-62
2022/12/27 10:12:03;;;;;;;9.87;3.07;;;;;;;10.21;61.47;101872.31;5097357;28;20218;-62
2022/12/27 10:14:49;;;;;;;6.63;3.07;;;;;;;11.00;59.53;101862.88;5102962;28;20218;-62
2022/12/27 10:17:31;;;;;;;8.33;3.00;;;;;;;11.53;57.27;101862.22;5104922;28;20226;-62
2022/12/27 10:20:10;;;;;;;7.87;2.97;;;;;;;12.18;55.10;101866.78;5101454;28;20192;-62
2022/12/27 10:22:46;;;;;;;6.73;2.43;;;;;;;12.41;53.79;101860.41;5102783;28;20574;-63
2022/12/27 10:25:18;;;;;;;9.43;3.00;;;;;;;12.03;54.52;101870.69;5109449;28;20641;-63
2022/12/27 10:27:47;;;;;;;9.47;2.87;;;;;;;11.63;55.39;101865.84;5099759;28;20683;-62
2022/12/27 10:30:18;;;;;;;9.57;2.90;;;;;;;11.35;56.24;101871.63;5100821;28;20783;-62
2022/12/27 10:32:47;;;;;;;12.30;3.30;;;;;;;11.34;56.57;101869.13;5082676;28;20209;-62
2022/12/27 10:35:16;;;;;;;12.40;3.10;;;;;;;12.16;55.33;101871.38;5080483;28;20213;-62
2022/12/27 10:37:45;;;;;;;10.90;2.97;;;;;;;13.17;52.54;101866.50;5080648;28;20637;-64
2022/12/27 10:40:25;;;;;;;7.90;3.10;;;;;;;13.86;50.09;101867.50;5083808;28;20250;-63
2022/12/27 10:43:03;;;;;;;10.13;2.47;;;;;;;14.59;48.56;101858.25;5083988;28;20205;-63
2022/12/27 10:45:35;;;;;;;5.67;2.23;;;;;;;14.93;47.71;101860.47;5078669;28;20218;-63
2022/12/27 10:48:16;;;;;;;7.50;2.27;;;;;;;15.22;47.08;101855.91;5081448;28;20628;-62
2022/12/27 10:50:53;;;;;;;7.60;2.63;;;;;;;15.91;45.90;101852.88;5079728;28;20211;-63
2022/12/27 10:53:33;;;;;;;4.93;2.23;;;;;;;17.48;43.09;101845.00;5081031;28;20321;-62
2022/12/27 10:56:13;;;;;;;8.33;2.50;;;;;;;18.12;40.49;101847.13;5080887;28;20223;-63
2022/12/27 10:58:44;;;;;;;7.57;2.03;;;;;;;18.13;40.88;101850.63;5084764;28;20207;-61
2022/12/27 11:01:24;;;;;;;5.33;1.57;;;;;;;17.32;41.10;101843.09;5080530;28;20261;-62
2022/12/27 11:03:52;;;;;;;5.33;1.83;;;;;;;16.59;42.58;101847.88;5084169;28;20210;-62
2022/12/27 11:06:24;;;;;;;6.17;1.80;;;;;;;15.98;43.72;101853.09;5083571;28;20205;-62
2022/12/27 11:08:53;;;;;;;7.87;2.47;;;;;;;15.86;44.09;101862.31;5081328;28;20234;-62
2022/12/27 11:11:24;;;;;;;6.10;2.10;;;;;;;15.87;43.69;101861.31;5083800;28;20302;-63
2022/12/27 11:13:52;;;;;;;8.57;2.30;;;;;;;15.75;44.28;101858.84;5077894;28;20321;-62
2022/12/27 11:16:28;;;;;;;5.93;1.83;;;;;;;15.93;43.95;101850.84;5084070;28;20246;-61
2022/12/27 11:18:58;;;;;;;7.10;2.00;;;;;;;16.24;43.72;101848.72;5085260;28;20198;-62
2022/12/27 11:21:28;;;;;;;4.93;2.00;;;;;;;16.25;42.71;101850.41;5088192;28;20630;-62
2022/12/27 11:23:59;;;;;;;7.20;2.67;;;;;;;16.54;42.28;101844.78;5088762;28;20214;-61
2022/12/27 11:26:33;;;;;;;5.77;1.87;;;;;;;16.73;42.20;101852.69;5086686;28;20195;-61
2022/12/27 11:29:02;;;;;;;3.90;1.97;;;;;;;17.02;41.96;101843.56;5087825;28;20206;-61
2022/12/27 11:31:38;;;;;;;6.47;1.90;;;;;;;16.79;41.91;101854.78;5099309;28;20233;-61
2022/12/27 11:34:08;;;;;;;6.37;2.53;;;;;;;15.88;43.35;101858.50;5107763;28;20205;-61
2022/12/27 11:36:39;;;;;;;7.53;2.50;;;;;;;15.00;44.99;101851.75;5102614;28;20334;-61
2022/12/27 11:39:08;;;;;;;8.77;2.30;;;;;;;14.36;46.15;101854.13;5104594;28;20197;-62
2022/12/27 11:41:43;;;;;;;9.83;2.53;;;;;;;13.71;48.34;101855.53;5103031;28;20556;-62
2022/12/27 11:44:18;;;;;;;6.57;2.90;;;;;;;13.21;49.63;101861.72;5105493;28;20198;-61
2022/12/27 11:46:52;;;;;;;8.07;2.57;;;;;;;12.78;50.85;101860.03;5104463;28;20206;-62
2022/12/27 11:49:31;;;;;;;6.90;2.50;;;;;;;12.46;51.77;101853.88;5104683;28;20210;-63
2022/12/27 11:52:15;;;;;;;4.97;2.30;;;;;;;12.19;52.80;101857.00;5109032;28;20229;-62
2022/12/27 11:55:03;;;;;;;5.80;2.17;;;;;;;12.07;53.14;101848.19;5105658;28;20839;-61
2022/12/27 11:57:51;;;;;;;7.17;2.03;;;;;;;11.95;53.56;101842.06;5103295;28;20247;-61
2022/12/27 12:00:22;;;;;;;6.53;2.43;;;;;;;11.74;53.80;101846.41;5104393;28;20234;-62
2022/12/27 12:03:01;;;;;;;7.23;2.23;;;;;;;11.57;54.38;101839.78;5107897;28;20632;-63
2022/12/27 12:05:50;;;;;;;6.37;2.30;;;;;;;11.49;54.98;101838.69;5101780;28;20219;-61
2022/12/27 12:08:48;;;;;;;8.67;2.33;;;;;;;11.43;55.24;101832.06;5103026;28;20705;-61
2022/12/27 12:11:29;;;;;;;8.73;2.40;;;;;;;11.53;55.28;101833.00;5105404;28;20246;-61
2022/12/27 12:14:15;;;;;;;8.40;2.47;;;;;;;11.54;55.39;101841.81;5105501;28;20313;-62
2022/12/27 12:17:04;;;;;;;10.03;2.13;;;;;;;11.54;55.40;101852.44;5103110;28;20213;-62
2022/12/27 12:19:54;;;;;;;8.40;2.40;;;;;;;11.39;55.79;101846.53;5105896;28;20228;-61
2022/12/27 12:22:34;;;;;;;9.60;2.63;;;;;;;11.37;55.90;101843.13;5105857;28;20241;-62
2022/12/27 12:25:29;;;;;;;9.37;2.83;;;;;;;11.31;56.11;101843.63;5109075;28;20232;-61
2022/12/27 12:28:21;;;;;;;6.60;2.20;;;;;;;11.14;56.55;101847.59;5101669;28;20868;-61
2022/12/27 12:31:27;;;;;;;10.87;3.03;;;;;;;11.04;57.34;101846.59;5102908;28;20229;-61
2022/12/27 12:34:13;;;;;;;7.43;2.93;;;;;;;11.03;57.69;101836.94;5100139;28;20315;-61
2022/12/27 12:37:01;;;;;;;12.73;3.37;;;;;;;11.05;57.63;101831.53;5104234;28;20268;-61
2022/12/27 12:39:51;;;;;;;8.03;3.10;;;;;;;11.09;58.06;101831.16;5103416;28;20284;-61
2022/12/27 12:42:23;;;;;;;4.53;2.63;;;;;;;11.15;58.15;101833.38;5103238;28;20220;-63
2022/12/27 12:45:31;;;;;;;7.17;2.53;;;;;;;11.14;58.10;101822.84;5102061;28;20239;-59
2022/12/27 12:48:18;;;;;;;10.20;2.57;;;;;;;11.09;57.82;101825.84;5102999;28;20238;-61
2022/12/27 12:51:06;;;;;;;9.83;2.87;;;;;;;11.01;57.91;101819.44;5107790;28;20214;-62
2022/12/27 12:53:51;;;;;;;7.73;2.17;;;;;;;10.94;57.93;101817.28;5102489;28;20959;-61
2022/12/27 12:56:40;;;;;;;11.37;2.50;;;;;;;10.90;57.81;101817.63;5104704;28;20639;-61
2022/12/27 12:59:25;;;;;;;9.33;2.97;;;;;;;10.83;57.79;101811.94;5103061;28;20248;-61
2022/12/27 13:02:11;;;;;;;7.30;2.30;;;;;;;10.77;58.45;101811.56;5106436;28;20281;-62
2022/12/27 13:05:10;;;;;;;7.40;2.13;;;;;;;10.66;59.35;101809.72;5101316;28;20215;-62
2022/12/27 13:07:55;;;;;;;9.77;2.80;;;;;;;10.64;59.63;101803.69;5088717;28;20195;-62
2022/12/27 13:10:40;;;;;;;9.80;2.40;;;;;;;10.47;60.25;101798.78;5106984;28;20215;-62
2022/12/27 13:13:15;;;;;;;14.20;2.70;;;;;;;10.37;60.87;101803.13;5098825;28;20727;-63
2022/12/27 13:16:02;;;;;;;7.87;2.33;;;;;;;10.34;61.32;101787.44;5099127;28;20211;-61
2022/12/27 13:18:38;;;;;;;9.70;2.80;;;;;;;10.24;61.72;101794.38;5106384;28;20300;-62
2022/12/27 13:21:16;;;;;;;8.30;2.33;;;;;;;10.12;62.02;101799.56;5103400;28;20206;-62
2022/12/27 13:23:59;;;;;;;8.63;3.20;;;;;;;10.10;62.38;101790.91;5105414;28;20207;-62
2022/12/27 13:26:41;;;;;;;8.17;2.97;;;;;;;10.04;62.79;101780.75;5097967;28;20217;-61
2022/12/27 13:29:39;;;;;;;8.57;2.40;;;;;;;9.98;62.74;101781.22;5097452;28;20202;-61
2022/12/27 13:32:16;;;;;;;7.27;1.70;;;;;;;9.92;62.86;101784.31;5104740;28;20229;-62
2022/12/27 13:34:54;;;;;;;8.10;2.30;;;;;;;9.94;62.46;101785.03;5103046;28;20206;-61
2022/12/27 13:37:34;;;;;;;11.33;2.63;;;;;;;9.91;62.64;101782.63;5098716;28;20236;-62